createdAt,value
2023-02-02T00:00:35.115Z,4.90
2023-02-02T00:05:27.526Z,4.90
2023-02-02T00:10:19.520Z,4.90
2023-02-02T00:15:11.680Z,4.80
2023-02-02T00:20:03.840Z,4.70
2023-02-02T00:24:57.030Z,4.60
2023-02-02T00:29:53.661Z,4.50
2023-02-02T00:34:45.889Z,4.60
2023-02-02T00:39:37.925Z,4.60
2023-02-02T00:44:48.354Z,4.70
2023-02-02T00:49:40.413Z,4.70
2023-02-02T00:54:32.759Z,4.70
2023-02-02T00:59:25.990Z,4.70
2023-02-02T01:04:18.121Z,4.70
2023-02-02T01:09:11.620Z,4.70
2023-02-02T01:14:03.895Z,4.70
2023-02-02T01:18:55.932Z,4.70
2023-02-02T01:23:48.213Z,4.60
2023-02-02T01:28:40.715Z,4.50
2023-02-02T01:33:32.830Z,4.40
2023-02-02T01:38:25.151Z,4.40
2023-02-02T01:43:24.713Z,4.50
2023-02-02T01:48:18.471Z,4.50
2023-02-02T01:53:11.408Z,4.50
2023-02-02T01:58:21.289Z,4.60
2023-02-02T02:03:16.959Z,4.50
2023-02-02T02:14:52.722Z,4.50
2023-02-02T02:20:47.602Z,4.70
2023-02-02T02:26:07.604Z,4.90
2023-02-02T02:31:11.261Z,4.70
2023-02-02T02:36:19.561Z,4.80
2023-02-02T02:41:18.677Z,5.00
2023-02-02T02:46:12.938Z,5.00
2023-02-02T02:51:29.258Z,5.20
2023-02-02T02:56:33.921Z,5.20
2023-02-02T03:01:30.787Z,5.30
2023-02-02T03:06:45.066Z,5.30
2023-02-02T03:11:37.301Z,5.40
2023-02-02T03:16:29.275Z,5.40
2023-02-02T03:21:21.285Z,5.40
2023-02-02T03:26:13.755Z,5.40
2023-02-02T03:31:06.712Z,5.50
2023-02-02T03:35:58.817Z,5.60
2023-02-02T03:40:51.895Z,5.60
2023-02-02T03:45:44.300Z,5.60
2023-02-02T03:50:37.360Z,5.60
2023-02-02T03:55:29.469Z,5.60
2023-02-02T04:00:22.708Z,5.60
2023-02-02T04:05:14.766Z,5.60
2023-02-02T04:10:07.055Z,5.70
2023-02-02T04:14:59.078Z,5.70
2023-02-02T04:19:56.930Z,5.70
2023-02-02T04:24:49.425Z,5.70
2023-02-02T04:29:41.484Z,5.70
2023-02-02T04:34:33.493Z,5.70
2023-02-02T04:39:25.534Z,5.70
2023-02-02T04:44:17.830Z,5.70
2023-02-02T04:49:13.185Z,5.70
2023-02-02T04:54:06.837Z,5.70
2023-02-02T04:58:58.970Z,5.60
2023-02-02T05:03:51.798Z,5.60
2023-02-02T05:08:44.167Z,5.70
2023-02-02T05:13:36.903Z,5.70
2023-02-02T05:18:31.711Z,5.70
2023-02-02T05:23:23.803Z,5.70
2023-02-02T05:28:15.808Z,5.70
2023-02-02T05:33:07.857Z,5.80
2023-02-02T05:37:59.839Z,5.70
2023-02-02T05:42:51.875Z,5.70
2023-02-02T05:47:43.879Z,5.70
2023-02-02T05:52:37.324Z,5.70
2023-02-02T05:57:30.664Z,5.80
2023-02-02T06:02:22.749Z,5.80
2023-02-02T06:07:14.934Z,5.80
2023-02-02T06:12:07.239Z,5.80
2023-02-02T06:16:59.231Z,5.80
2023-02-02T06:21:51.268Z,5.80
2023-02-02T06:26:43.363Z,5.90
2023-02-02T06:31:35.555Z,5.70
2023-02-02T06:36:28.246Z,5.70
2023-02-02T06:41:20.453Z,5.70
2023-02-02T06:46:13.213Z,5.70
2023-02-02T06:51:05.661Z,5.80
2023-02-02T06:56:01.787Z,5.70
2023-02-02T07:00:53.965Z,5.70
2023-02-02T07:05:45.972Z,5.70
2023-02-02T07:11:11.224Z,5.80
2023-02-02T07:15:50.897Z,5.80
2023-02-02T07:20:42.945Z,5.80
2023-02-02T07:25:34.941Z,5.80
2023-02-02T07:30:29.856Z,5.90
2023-02-02T07:35:22.089Z,5.90
2023-02-02T07:40:14.293Z,6.00
2023-02-02T07:45:24.717Z,6.00
2023-02-02T07:50:19.547Z,5.90
2023-02-02T07:55:14.993Z,5.90
2023-02-02T08:00:07.601Z,5.90
2023-02-02T08:05:06.622Z,6.10
2023-02-02T08:09:58.675Z,6.20
2023-02-02T08:14:50.689Z,6.20
2023-02-02T08:19:42.645Z,6.30
2023-02-02T08:24:34.808Z,6.40
2023-02-02T08:29:26.764Z,6.40
2023-02-02T08:34:18.799Z,6.40
2023-02-02T08:39:12.565Z,6.40
2023-02-02T08:44:11.320Z,6.40
2023-02-02T08:49:03.673Z,6.40
2023-02-02T08:53:55.802Z,6.50
2023-02-02T08:58:50.737Z,6.50
2023-02-02T09:03:43.068Z,6.60
2023-02-02T09:08:35.613Z,6.50
2023-02-02T09:13:27.749Z,6.50
2023-02-02T09:18:19.782Z,6.50
2023-02-02T09:23:11.730Z,6.60
2023-02-02T09:28:05.026Z,6.60
2023-02-02T09:32:56.992Z,6.60
2023-02-02T09:37:48.963Z,6.60
2023-02-02T09:43:04.160Z,6.60
2023-02-02T09:48:15.020Z,6.70
2023-02-02T09:53:18.146Z,6.80
2023-02-02T09:58:27.882Z,6.90
2023-02-02T10:03:29.205Z,6.90
2023-02-02T10:08:34.958Z,7.00
2023-02-02T10:13:37.853Z,7.00
2023-02-02T10:18:38.787Z,6.90
2023-02-02T10:23:36.743Z,7.00
2023-02-02T10:28:53.194Z,7.00
2023-02-02T10:33:54.197Z,7.00
2023-02-02T10:39:07.595Z,6.90
2023-02-02T10:44:21.500Z,6.90
2023-02-02T10:49:23.084Z,7.00
2023-02-02T10:54:59.198Z,7.30
2023-02-02T11:00:22.264Z,7.40
2023-02-02T11:05:42.067Z,7.40
2023-02-02T11:10:35.346Z,7.60
2023-02-02T11:15:30.412Z,7.50
2023-02-02T11:20:33.682Z,7.40
2023-02-02T11:25:32.562Z,7.60
2023-02-02T11:30:30.290Z,7.70
2023-02-02T11:35:24.568Z,7.90
2023-02-02T11:40:42.219Z,8.30
2023-02-02T11:45:35.999Z,9.50
2023-02-02T11:50:28.911Z,10.00
2023-02-02T11:55:29.716Z,10.70
2023-02-02T12:00:27.122Z,10.30
2023-02-02T12:05:23.708Z,9.60
2023-02-02T12:10:25.706Z,9.80
2023-02-02T12:15:51.667Z,9.80
2023-02-02T12:21:04.799Z,9.90
2023-02-02T12:26:06.125Z,10.00
2023-02-02T12:31:15.836Z,10.10
2023-02-02T12:36:23.421Z,9.60
2023-02-02T12:41:37.053Z,9.20
2023-02-02T12:47:03.762Z,9.00
2023-02-02T12:51:55.790Z,9.30
2023-02-02T12:57:25.238Z,9.60
2023-02-02T13:02:52.367Z,10.10
2023-02-02T13:07:49.635Z,9.90
2023-02-02T13:12:46.711Z,9.60
2023-02-02T13:17:50.311Z,9.30
2023-02-02T13:22:44.541Z,9.10
2023-02-02T13:27:39.209Z,9.00
2023-02-02T13:32:36.313Z,9.20
2023-02-02T13:37:47.979Z,9.00
2023-02-02T13:42:56.636Z,8.80
2023-02-02T13:47:59.288Z,8.50
2023-02-02T13:53:25.388Z,8.10
2023-02-02T13:58:44.519Z,8.00
2023-02-02T14:03:40.373Z,8.00
2023-02-02T14:08:33.371Z,7.90
2023-02-02T14:14:04.363Z,7.70
2023-02-02T14:18:57.536Z,7.70
2023-02-02T14:23:54.141Z,7.80
2023-02-02T14:28:49.942Z,7.70
2023-02-02T14:33:47.433Z,7.70
2023-02-02T14:38:53.448Z,7.70
2023-02-02T14:43:52.190Z,7.70
2023-02-02T14:49:13.534Z,7.60
2023-02-02T14:54:07.368Z,7.70
2023-02-02T14:59:02.019Z,7.60
2023-02-02T15:04:22.073Z,7.50
2023-02-02T15:09:43.106Z,7.40
2023-02-02T15:15:01.336Z,7.20
2023-02-02T15:20:21.596Z,7.20
2023-02-02T15:25:21.879Z,7.10
2023-02-02T15:30:17.098Z,7.00
2023-02-02T15:35:20.811Z,7.10
2023-02-02T15:40:22.211Z,7.10
2023-02-02T15:45:44.452Z,7.10
2023-02-02T15:50:37.526Z,7.00
2023-02-02T15:55:31.165Z,7.00
2023-02-02T16:00:30.028Z,6.90
2023-02-02T16:05:37.306Z,6.90
2023-02-02T16:10:29.442Z,6.80
2023-02-02T16:15:26.500Z,6.70
2023-02-02T16:20:19.424Z,6.50
2023-02-02T16:25:19.302Z,6.30
2023-02-02T16:30:25.626Z,6.10
2023-02-02T16:35:37.723Z,5.90
2023-02-02T16:40:30.695Z,5.60
2023-02-02T16:45:43.998Z,5.60
2023-02-02T16:50:36.151Z,5.40
2023-02-02T16:55:48.024Z,5.40
2023-02-02T17:01:13.608Z,5.20
2023-02-02T17:06:07.388Z,4.90
2023-02-02T17:11:28.698Z,4.60
2023-02-02T17:16:23.333Z,4.50
2023-02-02T17:21:21.109Z,4.30
2023-02-02T17:26:13.429Z,4.20
2023-02-02T17:31:28.871Z,4.30
2023-02-02T17:36:21.153Z,4.50
2023-02-02T17:41:14.346Z,4.60
2023-02-02T17:46:10.039Z,4.80
2023-02-02T17:51:07.206Z,5.00
2023-02-02T17:56:03.404Z,5.00
2023-02-02T18:01:06.420Z,4.90
2023-02-02T18:06:04.890Z,4.70
2023-02-02T18:10:57.496Z,4.50
2023-02-02T18:15:51.007Z,4.50
2023-02-02T18:20:48.060Z,4.60
2023-02-02T18:25:40.463Z,4.60
2023-02-02T18:30:32.655Z,4.60
2023-02-02T18:35:25.515Z,4.60
2023-02-02T18:40:18.459Z,4.80
2023-02-02T18:45:10.845Z,4.90
2023-02-02T18:50:05.998Z,4.90
2023-02-02T18:55:01.650Z,4.70
2023-02-02T18:59:56.155Z,4.50
2023-02-02T19:05:07.897Z,4.40
2023-02-02T19:10:06.163Z,4.40
2023-02-02T19:15:12.983Z,4.50
2023-02-02T19:20:26.511Z,4.30
2023-02-02T19:25:18.602Z,4.10
2023-02-02T19:30:19.460Z,4.10
2023-02-02T19:35:18.729Z,3.90
2023-02-02T19:40:15.342Z,3.70
2023-02-02T19:45:28.805Z,3.70
2023-02-02T19:50:23.341Z,4.00
2023-02-02T19:55:23.144Z,4.10
2023-02-02T20:00:20.046Z,4.00
2023-02-02T20:05:12.209Z,3.90
2023-02-02T20:10:22.610Z,3.90
2023-02-02T20:15:20.638Z,3.90
2023-02-02T20:20:26.832Z,3.80
2023-02-02T20:25:19.348Z,3.90
2023-02-02T20:30:22.721Z,4.10
2023-02-02T20:35:22.857Z,4.30
2023-02-02T20:40:28.040Z,4.40
2023-02-02T20:45:22.031Z,4.30
2023-02-02T20:50:18.332Z,4.20
2023-02-02T20:55:11.061Z,4.20
2023-02-02T21:00:07.268Z,4.30
2023-02-02T21:05:04.308Z,4.40
2023-02-02T21:09:56.457Z,4.40
2023-02-02T21:14:48.416Z,4.50
2023-02-02T21:19:40.436Z,4.40
2023-02-02T21:25:07.367Z,4.30
2023-02-02T21:30:06.358Z,4.20
2023-02-02T21:35:04.277Z,4.20
2023-02-02T21:40:03.484Z,4.10
2023-02-02T21:44:58.630Z,4.10
2023-02-02T21:49:57.763Z,4.10
2023-02-02T21:54:49.991Z,4.10
2023-02-02T21:59:42.113Z,4.00
2023-02-02T22:04:34.452Z,3.90
2023-02-02T22:09:40.010Z,3.90
2023-02-02T22:14:43.775Z,3.80
2023-02-02T22:19:38.759Z,3.70
2023-02-02T22:24:31.392Z,3.70
2023-02-02T22:29:24.643Z,3.60
2023-02-02T22:34:16.779Z,3.50
2023-02-02T22:39:08.767Z,3.50
2023-02-02T22:44:00.763Z,3.70
2023-02-02T22:48:52.825Z,3.90
2023-02-02T22:53:44.829Z,4.10
2023-02-02T22:58:36.909Z,4.20
2023-02-02T23:03:29.021Z,4.40
2023-02-02T23:08:21.067Z,4.40
2023-02-02T23:13:13.077Z,4.40
2023-02-02T23:18:05.483Z,4.50
2023-02-02T23:22:57.521Z,4.60
2023-02-02T23:27:49.631Z,4.60
2023-02-02T23:32:41.977Z,4.60
2023-02-02T23:37:34.498Z,4.50
2023-02-02T23:42:27.214Z,4.50
2023-02-02T23:47:19.739Z,4.50
2023-02-02T23:52:12.435Z,4.60
2023-02-02T23:57:04.817Z,4.60
